Time;durP1;ratioP1;P1;durP2;ratioP2;P2;SDS_P1;SDS_P2;PMS_P1;PMS_P2;Temp;Humidity;BMP_temperature;BMP_pressure;BME280_temperature;BME280_humidity;BME280_pressure;Samples;Min_cycle;Max_cycle;Signal;HPM_P1;HPM_P2
2023/02/01 00:00:55;;;;;;;10.25;5.80;;;;;;;;;;5053969;28;20205;-65
2023/02/01 00:03:23;;;;;;;6.72;5.38;;;;;;;;;;5054390;28;20205;-66
2023/02/01 00:05:56;;;;;;;7.38;6.68;;;;;;;;;;5053573;28;20235;-65
2023/02/01 00:08:24;;;;;;;6.40;5.22;;;;;;;;;;5055323;28;20197;-65
2023/02/01 00:11:00;;;;;;;5.35;4.82;;;;;;;;;;5052200;28;20200;-65
2023/02/01 00:13:30;;;;;;;8.15;6.20;;;;;;;;;;5035227;28;20197;-65
2023/02/01 00:16:04;;;;;;;7.38;5.55;;;;;;;;;;5034434;28;20212;-65
2023/02/01 00:18:32;;;;;;;6.35;5.25;;;;;;;;;;5034814;28;20186;-65
2023/02/01 00:21:00;;;;;;;8.27;4.95;;;;;;;;;;5038809;28;20687;-65
2023/02/01 00:23:28;;;;;;;5.85;5.28;;;;;;;;;;5036445;28;20229;-65
2023/02/01 00:25:56;;;;;;;6.82;5.47;;;;;;;;;;5043985;28;20224;-65
2023/02/01 00:28:26;;;;;;;7.15;5.70;;;;;;;;;;5034223;28;20713;-65
2023/02/01 00:30:57;;;;;;;8.13;5.00;;;;;;;;;;5034065;28;20579;-65
2023/02/01 00:33:26;;;;;;;5.13;4.40;;;;;;;;;;5047786;28;20224;-65
2023/02/01 00:35:58;;;;;;;5.53;5.05;;;;;;;;;;5034228;28;20208;-65
2023/02/01 00:38:26;;;;;;;6.30;5.53;;;;;;;;;;5034243;28;20208;-65
2023/02/01 00:40:55;;;;;;;7.72;4.93;;;;;;;;;;5047222;28;20203;-65
2023/02/01 00:43:23;;;;;;;4.43;4.03;;;;;;;;;;5038961;28;20204;-65
2023/02/01 00:45:53;;;;;;;6.30;4.50;;;;;;;;;;5051636;28;20223;-66
2023/02/01 00:48:22;;;;;;;5.22;4.80;;;;;;;;;;5035211;28;20208;-65
2023/02/01 00:50:50;;;;;;;5.03;4.53;;;;;;;;;;5044484;28;20210;-65
2023/02/01 00:53:19;;;;;;;6.07;5.20;;;;;;;;;;5039992;28;20660;-65
2023/02/01 00:55:47;;;;;;;4.88;4.47;;;;;;;;;;5045513;28;20193;-65
2023/02/01 00:58:16;;;;;;;6.40;5.70;;;;;;;;;;5052555;28;20205;-66
2023/02/01 01:00:43;;;;;;;7.35;4.18;;;;;;;;;;5034095;28;20695;-65
2023/02/01 01:03:18;;;;;;;11.45;5.57;;;;;;;;;;5032987;28;20216;-65
2023/02/01 01:05:46;;;;;;;5.38;4.88;;;;;;;;;;5015496;28;20711;-65
2023/02/01 01:08:14;;;;;;;5.78;5.18;;;;;;;;;;5033740;28;20197;-66
2023/02/01 01:10:42;;;;;;;10.25;5.30;;;;;;;;;;5034923;28;20213;-65
2023/02/01 01:13:10;;;;;;;6.50;4.15;;;;;;;;;;5052039;28;20200;-65
2023/02/01 01:15:40;;;;;;;9.10;5.15;;;;;;;;;;5053235;28;20201;-65
2023/02/01 01:18:08;;;;;;;8.00;5.72;;;;;;;;;;5051997;28;20231;-65
2023/02/01 01:20:38;;;;;;;7.28;5.70;;;;;;;;;;5053240;28;20197;-65
2023/02/01 01:23:06;;;;;;;6.05;5.45;;;;;;;;;;5051976;28;20593;-65
2023/02/01 01:25:38;;;;;;;5.38;4.88;;;;;;;;;;5053353;28;20230;-66
2023/02/01 01:28:06;;;;;;;7.57;5.10;;;;;;;;;;5035353;28;20204;-65
2023/02/01 01:30:35;;;;;;;9.38;6.00;;;;;;;;;;5052611;28;20201;-65
2023/02/01 01:33:03;;;;;;;9.60;6.38;;;;;;;;;;5045406;28;20573;-66
2023/02/01 01:35:31;;;;;;;5.80;5.25;;;;;;;;;;5045321;28;20193;-65
2023/02/01 01:38:01;;;;;;;7.13;4.95;;;;;;;;;;5050440;28;20205;-65
2023/02/01 01:40:30;;;;;;;6.80;5.20;;;;;;;;;;5040206;28;20668;-65
2023/02/01 01:42:59;;;;;;;6.25;5.20;;;;;;;;;;5032981;28;20563;-65
2023/02/01 01:45:28;;;;;;;10.88;6.03;;;;;;;;;;5051571;28;20192;-65
2023/02/01 01:47:58;;;;;;;7.82;5.80;;;;;;;;;;5047958;28;20197;-67
2023/02/01 01:50:28;;;;;;;7.32;5.22;;;;;;;;;;5033408;28;20224;-65
2023/02/01 01:52:58;;;;;;;7.28;4.93;;;;;;;;;;5033059;28;20205;-66
2023/02/01 01:55:30;;;;;;;5.85;4.68;;;;;;;;;;5041160;28;20197;-66
2023/02/01 01:58:00;;;;;;;6.22;4.88;;;;;;;;;;5054431;28;20241;-65
2023/02/01 02:00:29;;;;;;;8.13;5.07;;;;;;;;;;5039095;28;20205;-66
2023/02/01 02:03:04;;;;;;;5.20;4.63;;;;;;;;;;5030789;28;20194;-66
2023/02/01 02:05:32;;;;;;;4.95;4.45;;;;;;;;;;5031782;28;20196;-65
2023/02/01 02:08:01;;;;;;;5.43;3.90;;;;;;;;;;5032763;28;20209;-65
2023/02/01 02:13:14;;;;;;;7.43;4.57;;;;;;;;;;5049220;28;20252;-66
2023/02/01 02:15:45;;;;;;;5.45;4.88;;;;;;;;;;5052119;28;20204;-65
2023/02/01 02:18:17;;;;;;;5.57;4.60;;;;;;;;;;5051612;28;20289;-65
2023/02/01 02:20:54;;;;;;;6.50;4.18;;;;;;;;;;5052538;28;20199;-65
2023/02/01 02:23:46;;;;;;;5.28;4.40;;;;;;;;;;5050742;28;20230;-65
2023/02/01 02:26:29;;;;;;;6.32;4.30;;;;;;;;;;5051857;28;20710;-66
2023/02/01 02:29:12;;;;;;;5.45;4.88;;;;;;;;;;5051771;28;20204;-66
2023/02/01 02:31:48;;;;;;;13.32;4.90;;;;;;;;;;5048068;28;20428;-65
2023/02/01 02:34:20;;;;;;;8.77;4.75;;;;;;;;;;5050448;28;20192;-65
2023/02/01 02:36:55;;;;;;;4.70;4.38;;;;;;;;;;5052617;28;20211;-66
2023/02/01 02:39:30;;;;;;;5.72;4.22;;;;;;;;;;5051031;28;20202;-65
2023/02/01 02:47:40;;;;;;;10.60;5.00;;;;;;;;;;5047243;28;20675;-65
2023/02/01 03:04:17;;;;;;;8.48;5.60;;;;;;;;;;5029489;28;20270;-65
2023/02/01 03:06:48;;;;;;;9.73;5.45;;;;;;;;;;5030652;28;20676;-65
2023/02/01 03:09:20;;;;;;;12.57;5.50;;;;;;;;;;5049928;28;20211;-65
2023/02/01 03:14:38;;;;;;;5.25;4.78;;;;;;;;;;5030529;28;20247;-65
2023/02/01 03:17:10;;;;;;;7.30;5.75;;;;;;;;;;5041326;28;20277;-66
2023/02/01 03:19:43;;;;;;;6.63;5.50;;;;;;;;;;5050014;28;20185;-65
2023/02/01 03:22:16;;;;;;;6.93;5.47;;;;;;;;;;5050703;28;20192;-65
2023/02/01 03:24:46;;;;;;;5.07;4.68;;;;;;;;;;5051693;28;20227;-65
2023/02/01 03:27:16;;;;;;;6.40;5.80;;;;;;;;;;5051203;28;20566;-65
2023/02/01 03:29:47;;;;;;;16.73;12.73;;;;;;;;;;5052327;28;20667;-65
2023/02/01 03:32:15;;;;;;;5.80;5.20;;;;;;;;;;5055692;28;20185;-67
2023/02/01 03:34:44;;;;;;;12.30;11.05;;;;;;;;;;5055658;28;20196;-65
2023/02/01 03:37:15;;;;;;;7.50;5.28;;;;;;;;;;5041261;28;20675;-65
2023/02/01 03:39:45;;;;;;;12.00;8.02;;;;;;;;;;5042730;28;20200;-65
2023/02/01 03:42:16;;;;;;;9.07;7.15;;;;;;;;;;5051252;28;20571;-65
2023/02/01 03:44:47;;;;;;;10.38;9.13;;;;;;;;;;5018657;28;20190;-65
2023/02/01 03:47:16;;;;;;;9.98;5.63;;;;;;;;;;5045827;28;20212;-65
2023/02/01 03:49:45;;;;;;;15.75;8.85;;;;;;;;;;5035616;28;20717;-66
2023/02/01 03:52:16;;;;;;;21.58;16.40;;;;;;;;;;5040251;28;20192;-66
2023/02/01 03:54:46;;;;;;;7.00;5.82;;;;;;;;;;5053591;28;20184;-66
2023/02/01 03:57:16;;;;;;;7.20;5.70;;;;;;;;;;5053551;28;20192;-65
2023/02/01 03:59:44;;;;;;;10.48;8.23;;;;;;;;;;5047573;28;20201;-65
2023/02/01 04:02:12;;;;;;;9.00;5.32;;;;;;;;;;5046456;28;20209;-65
2023/02/01 04:04:40;;;;;;;8.00;7.15;;;;;;;;;;5053263;28;20555;-65
2023/02/01 04:07:09;;;;;;;31.00;20.75;;;;;;;;;;5052800;28;20233;-65
2023/02/01 04:09:38;;;;;;;8.82;6.15;;;;;;;;;;5048498;28;20584;-66
2023/02/01 04:12:07;;;;;;;8.23;5.15;;;;;;;;;;5050029;28;20667;-66
2023/02/01 04:14:35;;;;;;;6.18;5.57;;;;;;;;;;5053970;28;20679;-66
2023/02/01 04:17:03;;;;;;;8.55;4.90;;;;;;;;;;5049224;28;20221;-65
2023/02/01 04:19:31;;;;;;;6.65;5.15;;;;;;;;;;5046298;28;20205;-65
2023/02/01 04:21:59;;;;;;;12.57;11.38;;;;;;;;;;5034281;28;20232;-65
2023/02/01 04:24:27;;;;;;;5.18;4.65;;;;;;;;;;5046882;28;20193;-65
2023/02/01 04:26:56;;;;;;;6.78;3.92;;;;;;;;;;5042440;28;20225;-65
2023/02/01 04:29:24;;;;;;;5.10;3.97;;;;;;;;;;5039063;28;20200;-66
2023/02/01 04:31:52;;;;;;;6.60;4.22;;;;;;;;;;5053581;28;20200;-65
2023/02/01 04:34:22;;;;;;;12.57;4.07;;;;;;;;;;5047550;28;20193;-65
2023/02/01 04:36:50;;;;;;;5.10;3.72;;;;;;;;;;5043199;28;20199;-65
2023/02/01 04:39:19;;;;;;;4.15;3.85;;;;;;;;;;5040398;28;20223;-65
2023/02/01 04:41:47;;;;;;;8.52;4.93;;;;;;;;;;5049178;28;20339;-65
2023/02/01 04:44:17;;;;;;;5.10;4.18;;;;;;;;;;5034224;28;20209;-65
2023/02/01 04:46:46;;;;;;;7.82;5.10;;;;;;;;;;5034979;28;20197;-66
2023/02/01 04:49:15;;;;;;;8.07;4.88;;;;;;;;;;5045452;28;20223;-65
2023/02/01 04:51:43;;;;;;;4.30;3.90;;;;;;;;;;5040319;28;20206;-65
2023/02/01 04:54:12;;;;;;;8.27;4.72;;;;;;;;;;5054099;28;20204;-66
2023/02/01 04:56:40;;;;;;;5.47;4.78;;;;;;;;;;5055470;28;20705;-65
2023/02/01 04:59:08;;;;;;;4.88;4.47;;;;;;;;;;5059945;28;20205;-65
2023/02/01 05:01:38;;;;;;;8.63;4.78;;;;;;;;;;5033434;28;20263;-63
2023/02/01 05:04:06;;;;;;;4.40;3.90;;;;;;;;;;5032521;28;20197;-63
2023/02/01 05:06:34;;;;;;;5.10;4.07;;;;;;;;;;5051644;28;20280;-63
2023/02/01 05:09:02;;;;;;;5.13;4.63;;;;;;;;;;5044252;28;20217;-63
2023/02/01 05:14:17;;;;;;;10.23;4.18;;;;;;;;;;5033035;28;20196;-64
2023/02/01 05:16:46;;;;;;;8.98;4.80;;;;;;;;;;5032282;28;20237;-65
2023/02/01 05:19:14;;;;;;;8.52;5.00;;;;;;;;;;5042091;28;20207;-64
2023/02/01 05:21:42;;;;;;;6.95;5.50;;;;;;;;;;5053000;28;20261;-65
2023/02/01 05:24:12;;;;;;;5.43;4.93;;;;;;;;;;5035440;28;20225;-65
2023/02/01 05:26:41;;;;;;;7.38;4.88;;;;;;;;;;5033833;28;20202;-65
2023/02/01 05:29:10;;;;;;;9.23;5.50;;;;;;;;;;5031931;28;20221;-64
2023/02/01 05:31:38;;;;;;;12.07;6.05;;;;;;;;;;5033862;28;20209;-64
2023/02/01 05:34:08;;;;;;;8.20;5.95;;;;;;;;;;5033327;28;20205;-64
2023/02/01 05:36:36;;;;;;;9.73;5.88;;;;;;;;;;5051582;28;20542;-64
2023/02/01 05:39:05;;;;;;;10.18;6.15;;;;;;;;;;5053014;28;20558;-64
2023/02/01 05:41:35;;;;;;;12.38;7.15;;;;;;;;;;5053091;28;20193;-65
2023/02/01 05:44:07;;;;;;;9.68;6.05;;;;;;;;;;5051931;28;20373;-64
2023/02/01 05:46:35;;;;;;;13.80;6.03;;;;;;;;;;5043175;28;20209;-65
2023/02/01 05:49:03;;;;;;;13.65;7.75;;;;;;;;;;5046971;28;20808;-64
2023/02/01 05:51:33;;;;;;;9.55;7.40;;;;;;;;;;5048790;28;20203;-65
2023/02/01 05:54:02;;;;;;;10.77;7.05;;;;;;;;;;5032696;28;20737;-65
2023/02/01 05:56:30;;;;;;;11.15;7.60;;;;;;;;;;5041926;28;20675;-64
2023/02/01 05:58:58;;;;;;;11.50;6.75;;;;;;;;;;5050483;28;20197;-64
2023/02/01 06:01:26;;;;;;;8.15;6.07;;;;;;;;;;5049482;28;20547;-64
2023/02/01 06:03:54;;;;;;;11.75;7.85;;;;;;;;;;5043758;28;20200;-64
2023/02/01 06:06:23;;;;;;;15.00;8.18;;;;;;;;;;5045880;28;20599;-64
2023/02/01 06:08:52;;;;;;;14.32;8.60;;;;;;;;;;5044480;28;20277;-64
2023/02/01 06:11:21;;;;;;;18.55;8.55;;;;;;;;;;5037840;28;20204;-64
2023/02/01 06:13:49;;;;;;;14.18;8.75;;;;;;;;;;5032038;28;20690;-65
2023/02/01 06:16:17;;;;;;;11.48;8.95;;;;;;;;;;5031759;28;20209;-64
2023/02/01 06:18:45;;;;;;;16.83;10.13;;;;;;;;;;5034342;28;20662;-65
2023/02/01 06:21:15;;;;;;;16.30;9.82;;;;;;;;;;5050177;28;20234;-65
2023/02/01 06:23:43;;;;;;;13.68;9.77;;;;;;;;;;5049088;28;20300;-64
2023/02/01 06:26:13;;;;;;;23.70;10.30;;;;;;;;;;5039607;28;20197;-64
2023/02/01 06:28:41;;;;;;;19.10;8.40;;;;;;;;;;5039106;28;20564;-65
2023/02/01 06:31:09;;;;;;;21.38;10.00;;;;;;;;;;5046098;28;20218;-65
2023/02/01 06:33:38;;;;;;;21.00;11.32;;;;;;;;;;5039007;28;20208;-65
2023/02/01 06:36:08;;;;;;;17.45;10.52;;;;;;;;;;5048337;28;20204;-65
2023/02/01 06:38:37;;;;;;;23.33;10.02;;;;;;;;;;5051683;28;20568;-65
2023/02/01 06:41:05;;;;;;;19.58;10.40;;;;;;;;;;5049270;28;20211;-65
2023/02/01 06:43:35;;;;;;;11.15;9.18;;;;;;;;;;5036010;28;20648;-65
2023/02/01 06:46:04;;;;;;;18.40;9.88;;;;;;;;;;5037744;28;20212;-65
2023/02/01 06:48:32;;;;;;;14.25;9.02;;;;;;;;;;5049625;28;20709;-65
2023/02/01 06:51:01;;;;;;;16.08;10.80;;;;;;;;;;5050627;28;20740;-66
2023/02/01 06:53:29;;;;;;;16.58;9.75;;;;;;;;;;5050932;28;20736;-65
2023/02/01 06:55:58;;;;;;;14.43;9.15;;;;;;;;;;5048540;28;20213;-65
2023/02/01 06:58:30;;;;;;;14.70;8.82;;;;;;;;;;5051602;28;20180;-66
2023/02/01 07:00:59;;;;;;;13.45;8.90;;;;;;;;;;5051607;28;20246;-66
2023/02/01 07:03:28;;;;;;;17.98;8.73;;;;;;;;;;5045996;28;20204;-66
2023/02/01 07:05:58;;;;;;;13.65;8.45;;;;;;;;;;5054812;28;20257;-66
2023/02/01 07:08:28;;;;;;;30.17;9.15;;;;;;;;;;5055409;28;20247;-66
2023/02/01 07:10:56;;;;;;;17.85;8.55;;;;;;;;;;5056124;28;20274;-65
2023/02/01 07:13:25;;;;;;;17.17;8.45;;;;;;;;;;5054565;28;20589;-66
2023/02/01 07:15:55;;;;;;;16.27;9.20;;;;;;;;;;5055710;28;20200;-66
2023/02/01 07:18:24;;;;;;;14.93;8.50;;;;;;;;;;5055677;28;20286;-66
2023/02/01 07:20:53;;;;;;;15.85;9.10;;;;;;;;;;5055549;28;21296;-65
2023/02/01 07:23:21;;;;;;;14.63;8.50;;;;;;;;;;5049181;28;20228;-66
2023/02/01 07:25:50;;;;;;;20.52;9.43;;;;;;;;;;5049070;28;20205;-65
2023/02/01 07:28:18;;;;;;;12.07;8.27;;;;;;;;;;5034092;28;20710;-66
2023/02/01 07:30:50;;;;;;;12.73;8.90;;;;;;;;;;5045947;28;20201;-66
2023/02/01 07:33:19;;;;;;;17.85;8.95;;;;;;;;;;5054324;28;20200;-65
2023/02/01 07:35:49;;;;;;;18.25;8.63;;;;;;;;;;5055336;28;20667;-65
2023/02/01 07:38:17;;;;;;;15.65;9.40;;;;;;;;;;5051867;28;20200;-65
2023/02/01 07:40:46;;;;;;;11.93;8.27;;;;;;;;;;5034936;28;20212;-66
2023/02/01 07:43:14;;;;;;;9.13;6.10;;;;;;;;;;5035073;28;20294;-65
2023/02/01 07:45:41;;;;;;;19.80;7.47;;;;;;;;;;5035188;28;20209;-65
2023/02/01 07:48:09;;;;;;;9.02;5.93;;;;;;;;;;5035059;28;20211;-65
2023/02/01 07:50:37;;;;;;;8.43;6.53;;;;;;;;;;5034889;28;20212;-65
2023/02/01 07:53:07;;;;;;;17.27;7.80;;;;;;;;;;5034725;28;20201;-65
2023/02/01 07:55:36;;;;;;;15.40;7.40;;;;;;;;;;5039446;28;20540;-65
2023/02/01 07:58:04;;;;;;;10.75;7.07;;;;;;;;;;5054665;28;20223;-65
2023/02/01 08:03:17;;;;;;;16.27;7.32;;;;;;;;;;5045243;28;20525;-66
2023/02/01 08:05:45;;;;;;;14.50;7.38;;;;;;;;;;5046380;28;20220;-65
2023/02/01 08:08:15;;;;;;;13.15;6.00;;;;;;;;;;5054377;28;20211;-65
2023/02/01 08:10:43;;;;;;;13.57;6.85;;;;;;;;;;5054618;28;20201;-64
2023/02/01 08:13:11;;;;;;;10.48;5.40;;;;;;;;;;5054507;28;20565;-66
2023/02/01 08:15:39;;;;;;;16.05;6.28;;;;;;;;;;5053580;28;20207;-66
2023/02/01 08:18:07;;;;;;;10.57;6.13;;;;;;;;;;5054061;28;20232;-66
2023/02/01 08:20:35;;;;;;;14.10;6.80;;;;;;;;;;5053719;28;20750;-65
2023/02/01 08:23:03;;;;;;;24.17;6.15;;;;;;;;;;5052959;28;20659;-66
2023/02/01 08:25:34;;;;;;;11.70;6.07;;;;;;;;;;5054421;28;20201;-66
2023/02/01 08:28:03;;;;;;;9.65;5.85;;;;;;;;;;5053919;28;20193;-66
2023/02/01 08:30:31;;;;;;;11.30;5.70;;;;;;;;;;5054082;28;20229;-65
2023/02/01 08:32:59;;;;;;;17.40;5.78;;;;;;;;;;5054192;28;20227;-66
2023/02/01 08:35:27;;;;;;;13.50;6.70;;;;;;;;;;5053984;28;20204;-65
2023/02/01 08:37:54;;;;;;;14.05;5.90;;;;;;;;;;5052272;28;20204;-66
2023/02/01 08:40:22;;;;;;;11.80;5.20;;;;;;;;;;5053915;28;20204;-65
2023/02/01 08:42:52;;;;;;;11.93;5.75;;;;;;;;;;5053423;28;20574;-64
2023/02/01 08:45:21;;;;;;;9.40;5.70;;;;;;;;;;5054109;28;20624;-64
2023/02/01 08:47:49;;;;;;;11.57;5.75;;;;;;;;;;5053674;28;20211;-65
2023/02/01 08:50:18;;;;;;;17.00;5.90;;;;;;;;;;5053730;28;20232;-63
2023/02/01 08:52:46;;;;;;;17.00;6.28;;;;;;;;;;5053271;28;20209;-65
2023/02/01 08:55:14;;;;;;;9.60;4.25;;;;;;;;;;5053924;28;20205;-65
2023/02/01 08:57:43;;;;;;;13.00;5.07;;;;;;;;;;5053111;28;20651;-65
2023/02/01 09:00:15;;;;;;;11.18;4.57;;;;;;;;;;5054143;28;20211;-66
2023/02/01 09:02:43;;;;;;;13.45;4.78;;;;;;;;;;5051977;28;20220;-66
2023/02/01 09:05:11;;;;;;;12.82;6.13;;;;;;;;;;5047427;28;20211;-65
2023/02/01 09:07:39;;;;;;;14.23;4.32;;;;;;;;;;5053276;28;20211;-65
2023/02/01 09:10:08;;;;;;;10.32;3.97;;;;;;;;;;5053216;28;20594;-66
2023/02/01 09:12:37;;;;;;;8.23;3.78;;;;;;;;;;5053116;28;20552;-65
2023/02/01 09:15:06;;;;;;;9.23;4.50;;;;;;;;;;5052769;28;20211;-65
2023/02/01 09:17:36;;;;;;;9.95;4.32;;;;;;;;;;5053017;28;20234;-66
2023/02/01 09:20:05;;;;;;;14.13;5.40;;;;;;;;;;5051854;28;20204;-65
2023/02/01 09:22:33;;;;;;;7.32;4.10;;;;;;;;;;5051573;28;20229;-65
2023/02/01 09:25:01;;;;;;;10.30;3.90;;;;;;;;;;5053072;28;20212;-65
2023/02/01 09:27:29;;;;;;;11.50;5.03;;;;;;;;;;5053051;28;20557;-65
2023/02/01 09:29:57;;;;;;;10.57;4.20;;;;;;;;;;5052651;28;20235;-65
2023/02/01 09:32:25;;;;;;;12.75;4.80;;;;;;;;;;5033376;28;20220;-65
2023/02/01 09:34:54;;;;;;;10.05;3.90;;;;;;;;;;5033306;28;20223;-65
2023/02/01 09:37:22;;;;;;;15.85;4.80;;;;;;;;;;5033026;28;20664;-65
2023/02/01 09:39:50;;;;;;;11.95;3.95;;;;;;;;;;5031796;28;20201;-65
2023/02/01 09:42:23;;;;;;;10.48;4.00;;;;;;;;;;5033111;28;20263;-65
2023/02/01 09:44:59;;;;;;;5.85;3.47;;;;;;;;;;5032917;28;20504;-65
2023/02/01 09:47:27;;;;;;;21.50;4.82;;;;;;;;;;5031936;28;20209;-66
2023/02/01 09:49:58;;;;;;;12.07;4.32;;;;;;;;;;5033140;28;20225;-65
2023/02/01 09:52:29;;;;;;;10.18;4.10;;;;;;;;;;5051949;28;20204;-65
2023/02/01 09:55:02;;;;;;;21.38;3.92;;;;;;;;;;5051872;28;20192;-65
2023/02/01 09:57:38;;;;;;;21.02;3.95;;;;;;;;;;5051720;28;20258;-65
2023/02/01 10:00:09;;;;;;;18.25;2.95;;;;;;;;;;5051488;28;20559;-65
2023/02/01 10:02:45;;;;;;;17.02;4.15;;;;;;;;;;5051615;28;20216;-66
2023/02/01 10:05:16;;;;;;;11.68;4.63;;;;;;;;;;5051270;28;20211;-66
2023/02/01 10:07:48;;;;;;;16.73;4.07;;;;;;;;;;5052198;28;20652;-65
2023/02/01 10:10:22;;;;;;;10.82;3.33;;;;;;;;;;5050569;28;20216;-67
2023/02/01 10:12:57;;;;;;;8.20;2.63;;;;;;;;;;5052303;28;20192;-66
2023/02/01 10:15:29;;;;;;;9.68;3.67;;;;;;;;;;5050734;28;20681;-65
2023/02/01 10:18:15;;;;;;;13.13;3.67;;;;;;;;;;5052652;28;20232;-65
2023/02/01 10:20:50;;;;;;;12.95;3.05;;;;;;;;;;5051353;28;20552;-65
2023/02/01 10:23:27;;;;;;;9.82;3.53;;;;;;;;;;5052176;28;20231;-65
2023/02/01 10:25:56;;;;;;;10.00;3.10;;;;;;;;;;5051089;28;20200;-65
2023/02/01 10:28:25;;;;;;;14.02;3.25;;;;;;;;;;5052049;28;20216;-66
2023/02/01 10:30:55;;;;;;;11.80;3.33;;;;;;;;;;5051306;28;20247;-65
2023/02/01 10:33:25;;;;;;;7.82;3.70;;;;;;;;;;5049361;28;20207;-65
2023/02/01 10:35:57;;;;;;;13.15;3.40;;;;;;;;;;5051030;28;20219;-65
2023/02/01 10:38:27;;;;;;;11.07;4.38;;;;;;;;;;5055747;28;20193;-66
2023/02/01 10:40:57;;;;;;;7.95;3.10;;;;;;;;;;5058284;28;20675;-65
2023/02/01 10:43:25;;;;;;;18.17;3.67;;;;;;;;;;5058289;28;20204;-66
2023/02/01 10:45:53;;;;;;;9.40;3.15;;;;;;;;;;5058365;28;20204;-66
2023/02/01 10:48:21;;;;;;;11.63;3.20;;;;;;;;;;5058513;28;20208;-66
2023/02/01 10:50:53;;;;;;;7.93;3.03;;;;;;;;;;5052287;28;20228;-68
2023/02/01 10:53:25;;;;;;;16.10;3.95;;;;;;;;;;5058314;28;20205;-68
2023/02/01 10:55:54;;;;;;;12.10;3.08;;;;;;;;;;5057529;28;20211;-68
2023/02/01 10:58:27;;;;;;;9.82;3.50;;;;;;;;;;5058722;28;20212;-68
2023/02/01 11:00:57;;;;;;;10.10;3.35;;;;;;;;;;5056892;28;20204;-68
2023/02/01 11:03:34;;;;;;;12.93;3.17;;;;;;;;;;5057365;28;20204;-68
2023/02/01 11:06:02;;;;;;;8.95;3.30;;;;;;;;;;5053072;28;20204;-68
2023/02/01 11:08:31;;;;;;;19.88;4.35;;;;;;;;;;5058240;28;20230;-68
2023/02/01 11:11:01;;;;;;;9.18;3.20;;;;;;;;;;5058617;28;20247;-68
2023/02/01 11:13:35;;;;;;;12.20;3.53;;;;;;;;;;5056915;28;20215;-68
2023/02/01 11:16:04;;;;;;;10.05;3.22;;;;;;;;;;5058025;28;20223;-68
2023/02/01 11:18:36;;;;;;;9.60;2.95;;;;;;;;;;5053452;28;20197;-68
2023/02/01 11:21:05;;;;;;;12.73;3.15;;;;;;;;;;5049024;28;20190;-68
2023/02/01 11:23:41;;;;;;;8.50;3.47;;;;;;;;;;5045875;28;20308;-68
2023/02/01 11:26:11;;;;;;;13.20;3.28;;;;;;;;;;5045584;28;20635;-68
2023/02/01 11:28:41;;;;;;;6.40;3.40;;;;;;;;;;5045964;28;20197;-68
2023/02/01 11:31:10;;;;;;;11.13;3.08;;;;;;;;;;5046629;28;20223;-68
2023/02/01 11:33:39;;;;;;;7.05;3.30;;;;;;;;;;5045632;28;20197;-68
2023/02/01 11:36:09;;;;;;;6.18;3.28;;;;;;;;;;5045603;28;20201;-68
2023/02/01 11:38:38;;;;;;;10.15;3.58;;;;;;;;;;5055702;28;20204;-68
2023/02/01 11:41:13;;;;;;;11.52;3.92;;;;;;;;;;5058698;28;20219;-68
2023/02/01 11:43:52;;;;;;;12.15;3.85;;;;;;;;;;5056574;28;20563;-68
2023/02/01 11:46:24;;;;;;;9.00;3.30;;;;;;;;;;5047096;28;20667;-68
2023/02/01 11:48:53;;;;;;;6.60;3.03;;;;;;;;;;5053574;28;20207;-67
2023/02/01 11:51:26;;;;;;;11.00;3.10;;;;;;;;;;5045103;28;20217;-68
2023/02/01 11:54:09;;;;;;;8.40;2.45;;;;;;;;;;5050022;28;20205;-68
2023/02/01 11:56:38;;;;;;;12.73;2.78;;;;;;;;;;5046800;28;20193;-68
2023/02/01 11:59:13;;;;;;;10.88;3.35;;;;;;;;;;5028306;28;20218;-68
2023/02/01 12:01:46;;;;;;;7.53;2.88;;;;;;;;;;5053785;28;20185;-68
2023/02/01 12:04:29;;;;;;;12.73;3.80;;;;;;;;;;5051922;28;20203;-68
2023/02/01 12:06:58;;;;;;;9.73;3.80;;;;;;;;;;5045353;28;20200;-71
2023/02/01 12:09:36;;;;;;;13.65;3.70;;;;;;;;;;5050996;28;20239;-68
2023/02/01 12:12:09;;;;;;;13.45;3.42;;;;;;;;;;5054385;28;20683;-68
2023/02/01 12:14:47;;;;;;;11.20;3.40;;;;;;;;;;5052754;28;20258;-68
2023/02/01 12:17:34;;;;;;;12.48;3.17;;;;;;;;;;5054424;28;20234;-68
2023/02/01 12:20:08;;;;;;;12.32;3.28;;;;;;;;;;5054018;28;20193;-68
2023/02/01 12:22:42;;;;;;;7.40;2.72;;;;;;;;;;5051776;28;20227;-68
2023/02/01 12:25:21;;;;;;;12.95;3.47;;;;;;;;;;5054932;28;20204;-68
2023/02/01 12:28:07;;;;;;;17.17;3.20;;;;;;;;;;5053623;28;20200;-67
2023/02/01 12:30:44;;;;;;;11.23;6.03;;;;;;;;;;5048933;28;20270;-67
2023/02/01 12:33:16;;;;;;;10.35;3.33;;;;;;;;;;5046656;28;20215;-68
2023/02/01 12:35:56;;;;;;;9.20;3.20;;;;;;;;;;5044926;28;20232;-68
2023/02/01 12:38:34;;;;;;;12.60;3.53;;;;;;;;;;5042042;28;20685;-68
2023/02/01 12:41:30;;;;;;;7.07;2.40;;;;;;;;;;5042850;28;20647;-67
2023/02/01 12:44:00;;;;;;;16.88;4.50;;;;;;;;;;5040221;28;20201;-68
2023/02/01 12:46:32;;;;;;;15.30;3.53;;;;;;;;;;5041756;28;20200;-68
2023/02/01 12:49:04;;;;;;;14.40;2.90;;;;;;;;;;5046006;28;20196;-68
2023/02/01 12:51:34;;;;;;;11.20;2.65;;;;;;;;;;5046023;28;20278;-68
2023/02/01 12:54:05;;;;;;;11.70;3.67;;;;;;;;;;5047264;28;20557;-68
2023/02/01 12:56:38;;;;;;;13.32;3.05;;;;;;;;;;5045691;28;20274;-68
2023/02/01 12:59:11;;;;;;;13.50;3.40;;;;;;;;;;5045533;28;20568;-68
2023/02/01 13:01:43;;;;;;;5.35;2.53;;;;;;;;;;5039156;28;20189;-68
2023/02/01 13:04:14;;;;;;;13.20;3.92;;;;;;;;;;5039110;28;20203;-68
2023/02/01 13:06:44;;;;;;;14.02;3.10;;;;;;;;;;5043976;28;20200;-69
2023/02/01 13:09:19;;;;;;;7.50;2.47;;;;;;;;;;5040678;28;20202;-68
2023/02/01 13:11:49;;;;;;;11.18;3.80;;;;;;;;;;5032916;28;20209;-68
2023/02/01 13:14:30;;;;;;;12.90;3.75;;;;;;;;;;5033114;28;20215;-68
2023/02/01 13:17:01;;;;;;;14.82;4.00;;;;;;;;;;5032533;28;20244;-68
2023/02/01 13:19:31;;;;;;;17.95;5.38;;;;;;;;;;5032998;28;20200;-68
2023/02/01 13:22:02;;;;;;;9.48;3.20;;;;;;;;;;5032674;28;20181;-68
2023/02/01 13:24:34;;;;;;;19.73;4.75;;;;;;;;;;5032817;28;20703;-68
2023/02/01 13:27:04;;;;;;;8.80;3.20;;;;;;;;;;5032861;28;20186;-68
2023/02/01 13:29:34;;;;;;;5.93;4.10;;;;;;;;;;5032987;28;20213;-68
2023/02/01 13:32:26;;;;;;;18.00;6.22;;;;;;;;;;5032492;28;20221;-68
2023/02/01 13:35:13;;;;;;;16.48;8.75;;;;;;;;;;5046759;28;20200;-68
2023/02/01 13:38:02;;;;;;;12.05;4.45;;;;;;;;;;5045877;28;20214;-68
2023/02/01 13:40:38;;;;;;;7.60;3.55;;;;;;;;;;5028261;28;20216;-68
2023/02/01 13:43:09;;;;;;;10.95;5.35;;;;;;;;;;5052368;28;20561;-68
2023/02/01 13:45:42;;;;;;;11.00;3.75;;;;;;;;;;5052108;28;20566;-68
2023/02/01 13:48:19;;;;;;;10.30;5.10;;;;;;;;;;5051968;28;20203;-68
2023/02/01 13:50:51;;;;;;;10.07;4.45;;;;;;;;;;5051956;28;20703;-68
2023/02/01 13:53:22;;;;;;;11.27;5.20;;;;;;;;;;5052132;28;20640;-68
2023/02/01 13:55:57;;;;;;;14.85;4.00;;;;;;;;;;5052373;28;20192;-68
2023/02/01 13:58:31;;;;;;;10.50;5.05;;;;;;;;;;5051956;28;20437;-68
2023/02/01 14:01:14;;;;;;;9.50;4.35;;;;;;;;;;5051524;28;20184;-68
2023/02/01 14:03:45;;;;;;;16.15;4.20;;;;;;;;;;5050904;28;20211;-68
2023/02/01 14:06:18;;;;;;;9.45;3.60;;;;;;;;;;5051480;28;20208;-68
2023/02/01 14:08:52;;;;;;;12.35;5.43;;;;;;;;;;5051168;28;20219;-68
2023/02/01 14:11:35;;;;;;;31.60;17.95;;;;;;;;;;5050093;28;20695;-68
2023/02/01 14:14:24;;;;;;;42.67;20.80;;;;;;;;;;5051573;28;20533;-68
2023/02/01 14:17:06;;;;;;;54.50;31.55;;;;;;;;;;5051378;28;20236;-67
2023/02/01 14:19:36;;;;;;;22.70;8.38;;;;;;;;;;5051749;28;20212;-68
2023/02/01 14:22:29;;;;;;;7.45;3.42;;;;;;;;;;5051792;28;20212;-68
2023/02/01 14:24:58;;;;;;;34.60;19.40;;;;;;;;;;5049562;28;20208;-68
2023/02/01 14:27:27;;;;;;;10.20;3.85;;;;;;;;;;5052043;28;20208;-68
2023/02/01 14:29:59;;;;;;;8.70;3.53;;;;;;;;;;5051546;28;20269;-68
2023/02/01 14:32:33;;;;;;;15.93;4.95;;;;;;;;;;5050811;28;20216;-68
2023/02/01 14:35:07;;;;;;;20.23;6.10;;;;;;;;;;5050926;28;20219;-68
2023/02/01 14:37:37;;;;;;;21.92;8.57;;;;;;;;;;5046281;28;20204;-68
2023/02/01 14:40:06;;;;;;;10.77;3.80;;;;;;;;;;5055193;28;20216;-68
2023/02/01 14:42:39;;;;;;;6.60;3.13;;;;;;;;;;5058183;28;20192;-68
2023/02/01 14:45:34;;;;;;;15.00;4.68;;;;;;;;;;5071268;28;20188;-68
2023/02/01 14:48:20;;;;;;;11.07;3.17;;;;;;;;;;5011395;28;20622;-68
2023/02/01 14:50:51;;;;;;;20.75;3.58;;;;;;;;;;5040383;28;20245;-68
2023/02/01 14:53:23;;;;;;;9.65;3.80;;;;;;;;;;5040801;28;20221;-68
2023/02/01 14:55:53;;;;;;;12.80;4.60;;;;;;;;;;5041128;28;20216;-68
2023/02/01 14:58:31;;;;;;;23.58;4.55;;;;;;;;;;5038814;28;20201;-68
2023/02/01 15:01:00;;;;;;;7.35;2.72;;;;;;;;;;5038486;28;20192;-68
2023/02/01 15:03:36;;;;;;;5.63;3.33;;;;;;;;;;5038476;28;20512;-68
2023/02/01 15:06:06;;;;;;;12.85;3.33;;;;;;;;;;5037016;28;20204;-68
2023/02/01 15:08:35;;;;;;;9.02;2.75;;;;;;;;;;5039854;28;20197;-68
2023/02/01 15:11:07;;;;;;;9.52;3.00;;;;;;;;;;5041760;28;20209;-68
2023/02/01 15:13:35;;;;;;;8.10;3.13;;;;;;;;;;5048635;28;20528;-68
2023/02/01 15:16:07;;;;;;;9.02;3.15;;;;;;;;;;5040375;28;20197;-68
2023/02/01 15:18:35;;;;;;;9.23;2.95;;;;;;;;;;5039812;28;20189;-68
2023/02/01 15:21:05;;;;;;;10.55;3.00;;;;;;;;;;5039239;28;20652;-68
2023/02/01 15:23:34;;;;;;;9.98;3.67;;;;;;;;;;5046892;28;20227;-68
2023/02/01 15:26:02;;;;;;;8.25;3.20;;;;;;;;;;5053257;28;20201;-68
2023/02/01 15:28:30;;;;;;;9.30;4.05;;;;;;;;;;5054334;28;20208;-68